Departure
University Airport
Davis, US
cloud Weather
- Wind
- 0° / 0 kt
- Visibility
- 10 SM
- Ceiling
- CLR
- Temp / Dew
- 17°C / 12°C
- Altimeter
- 30.01 inHg
Obs: 2026-09-02T08:35:00.000Z
Raw METAR
METAR KEDU 020835Z AUTO 00000KT 10SM 17/12 A3001 RMK AO1
route Route
Departure
Davis, US
Obs: 2026-09-02T08:35:00.000Z
METAR KEDU 020835Z AUTO 00000KT 10SM 17/12 A3001 RMK AO1
Arrival
Davis/Woodland/Winters, US
Obs: 2026-09-02T08:30:00.000Z
METAR KDWA 020830Z AUTO 18004KT 10SM SCT070 17/12 A3001 RMK AO2
| Date | Flight | Aircraft | Takeoff | Landing | Duration | Arr Δ |
|---|---|---|---|---|---|---|
| 2026-07-15 | N67807 | A8FBE8 | Jul 15, 14:15 UTC | Jul 15, 14:50 UTC | 35m | - |
| 2026-07-12 | N21500 | A1CE86 | Jul 12, 14:35 UTC | Jul 12, 15:40 UTC | 1h 5m | - |
| 2026-07-07 | N4870G | A604F9 | Jul 7, 20:30 UTC | Jul 7, 21:35 UTC | 1h 5m | - |
| 2026-07-07 | N67405 | A8ED0A | Jul 7, 19:00 UTC | Jul 7, 19:30 UTC | 30m | - |
| 2026-07-07 | N67405 | A8ED0A | Jul 7, 16:35 UTC | Jul 7, 17:25 UTC | 50m | - |
| 2026-07-06 | N67807 | A8FBE8 | Jul 6, 17:10 UTC | Jul 6, 17:25 UTC | 15m | - |
| 2026-07-06 | N65415 | A89E2F | Jul 6, 16:30 UTC | Jul 6, 17:15 UTC | 45m | - |
| 2026-07-06 | N65415 | A89E2F | Jul 6, 00:40 UTC | Jul 6, 01:35 UTC | 55m | - |
| 2026-07-05 | N65415 | A89E2F | Jul 5, 19:45 UTC | Jul 5, 20:30 UTC | 45m | - |
| 2026-07-05 | N198ME | A186FB | Jul 5, 19:00 UTC | Jul 5, 20:00 UTC | 1h 0m | - |
| 2026-07-04 | N238M | A2274B | Jul 4, 17:10 UTC | Jul 4, 17:50 UTC | 40m | - |
| 2026-07-01 | N1947L | A17A5F | Jul 1, 16:55 UTC | Jul 1, 17:05 UTC | 10m | - |
| 2026-06-17 | N67807 | A8FBE8 | Jun 17, 19:50 UTC | Jun 17, 20:05 UTC | 15m | - |
| 2026-06-09 | N67405 | A8ED0A | Jun 9, 15:40 UTC | Jun 9, 15:50 UTC | 10m | - |
| 2026-06-08 | N67405 | A8ED0A | Jun 8, 22:20 UTC | Jun 8, 22:40 UTC | 20m | - |
| 2026-06-02 | N67405 | A8ED0A | Jun 2, 23:10 UTC | Jun 2, 23:50 UTC | 40m | - |
| 2026-06-02 | N67807 | A8FBE8 | Jun 2, 14:40 UTC | Jun 2, 15:25 UTC | 45m | - |
| 2026-05-30 | N67405 | A8ED0A | May 30, 20:35 UTC | May 30, 21:20 UTC | 45m | - |
| 2026-05-23 | N21500 | A1CE86 | May 23, 17:45 UTC | May 23, 18:55 UTC | 1h 10m | - |
| 2026-05-20 | N65415 | A89E2F | May 20, 15:30 UTC | May 20, 16:15 UTC | 45m | - |
| 2026-05-14 | N65415 | A89E2F | May 14, 03:35 UTC | May 14, 04:20 UTC | 45m | - |
| 2026-05-11 | N67405 | A8ED0A | May 11, 15:35 UTC | May 11, 16:10 UTC | 35m | - |
| 2026-05-07 | N24775 | A24D6B | May 7, 17:30 UTC | May 7, 18:00 UTC | 30m | - |
| 2026-05-04 | N316TS | A35ED5 | May 4, 20:10 UTC | May 4, 20:45 UTC | 35m | - |
| 2026-05-04 | N65415 | A89E2F | May 4, 19:20 UTC | May 4, 19:35 UTC | 15m | - |
| 2026-05-03 | N24775 | A24D6B | May 3, 16:40 UTC | May 3, 17:35 UTC | 55m | - |
| 2026-04-30 | N238M | A2274B | Apr 30, 23:05 UTC | Apr 30, 23:35 UTC | 30m | - |
| 2026-04-30 | N805DZ | AAF4D3 | Apr 30, 18:45 UTC | Apr 30, 18:50 UTC | 5m | - |
| 2026-04-24 | N805DZ | AAF4D3 | Apr 24, 18:25 UTC | Apr 24, 18:35 UTC | 10m | - |
| 2026-04-24 | N21500 | A1CE86 | Apr 24, 16:45 UTC | Apr 24, 17:00 UTC | 15m | - |
| 2026-04-19 | N198ME | A186FB | Apr 19, 18:15 UTC | Apr 19, 18:40 UTC | 25m | - |
| 2026-04-14 | N67405 | A8ED0A | Apr 14, 20:25 UTC | Apr 14, 20:50 UTC | 25m | - |